Time;durP1;ratioP1;P1;durP2;ratioP2;P2;SDS_P1;SDS_P2;PMS_P1;PMS_P2;Temp;Humidity;BMP_temperature;BMP_pressure;BME280_temperature;BME280_humidity;BME280_pressure;Samples;Min_cycle;Max_cycle;Signal;HPM_P1;HPM_P2
2022/10/11 00:00:52;;;;;;;;;;;;;;;20.94;49.15;102435.22;7282843;19;155401;-56
2022/10/11 00:03:19;;;;;;;;;;;;;;;20.94;49.63;102429.59;7284917;19;152380;-57
2022/10/11 00:05:46;;;;;;;;;;;;;;;20.92;49.49;102429.00;7282960;19;153884;-57
2022/10/11 00:08:13;;;;;;;;;;;;;;;20.92;49.71;102426.19;7281252;19;154055;-57
2022/10/11 00:10:39;;;;;;;;;;;;;;;20.91;49.52;102428.16;7283350;19;152578;-57
2022/10/11 00:13:07;;;;;;;;;;;;;;;20.92;49.88;102434.63;7282265;19;153540;-57
2022/10/11 00:15:33;;;;;;;;;;;;;;;20.92;49.57;102431.81;7282672;19;153440;-58
2022/10/11 00:18:00;;;;;;;;;;;;;;;20.91;49.69;102425.34;7289600;19;152036;-57
2022/10/11 00:20:30;;;;;;;;;;;;;;;20.91;49.83;102430.97;7281862;19;153274;-56
2022/10/11 00:22:57;;;;;;;;;;;;;;;20.89;49.99;102433.22;7284830;19;152495;-56
2022/10/11 00:25:24;;;;;;;;;;;;;;;20.89;50.20;102430.41;7283774;19;153928;-56
2022/10/11 00:27:50;;;;;;;;;;;;;;;20.90;50.09;102431.25;7281096;19;154691;-57
2022/10/11 00:30:17;;;;;;;;;;;;;;;20.89;49.93;102440.81;7283961;19;153305;-57
2022/10/11 00:32:44;;;;;;;;;;;;;;;20.88;49.88;102439.13;7284042;19;153879;-56
2022/10/11 00:35:10;;;;;;;;;;;;;;;20.88;50.02;102444.72;7281006;19;154608;-56
2022/10/11 00:37:38;;;;;;;;;;;;;;;20.87;50.58;102441.06;7273870;19;153505;-57
2022/10/11 00:40:05;;;;;;;;;;;;;;;20.88;50.54;102448.38;7290040;19;153284;-57
2022/10/11 00:42:32;;;;;;;;;;;;;;;20.89;50.52;102441.66;7277666;19;152236;-56
2022/10/11 00:45:17;;;;;;;;;;;;;;;20.88;50.21;102445.59;7279996;19;153733;-56
2022/10/11 00:47:44;;;;;;;;;;;;;;;20.88;50.39;102453.16;7280574;19;153651;-57
2022/10/11 00:50:11;;;;;;;;;;;;;;;20.88;50.16;102450.34;7283347;19;152045;-56
2022/10/11 00:52:40;;;;;;;;;;;;;;;20.88;50.52;102451.19;7284107;19;153162;-57
2022/10/11 00:55:10;;;;;;;;;;;;;;;20.88;50.40;102459.63;7281658;19;152813;-56
2022/10/11 00:57:39;;;;;;;;;;;;;;;20.87;50.61;102452.31;7282389;19;152495;-56
2022/10/11 01:00:08;;;;;;;;;;;;;;;20.88;50.71;102456.81;7282447;19;153580;-56
2022/10/11 01:02:35;;;;;;;;;;;;;;;20.87;50.66;102457.94;7289573;19;152515;-56
2022/10/11 01:05:01;;;;;;;;;;;;;;;20.88;50.82;102453.16;7282079;19;154081;-57
2022/10/11 01:07:49;;;;;;;;;;;;;;;20.86;50.87;102459.88;7280451;19;157129;-56
2022/10/11 01:10:17;;;;;;;;;;;;;;;20.87;50.94;102457.94;7279747;19;152150;-56
2022/10/11 01:12:55;;;;;;;;;;;;;;;20.85;50.95;102463.81;7283124;19;152844;-56
2022/10/11 01:15:27;;;;;;;;;;;;;;;20.85;50.94;102461.00;7277910;19;154167;-57
2022/10/11 01:18:09;;;;;;;;;;;;;;;20.85;50.81;102457.34;7282515;19;152204;-56
2022/10/11 01:20:40;;;;;;;;;;;;;;;20.85;50.57;102460.16;7281225;19;153184;-56
2022/10/11 01:23:15;;;;;;;;;;;;;;;20.83;50.62;102463.25;7283003;19;154431;-56
2022/10/11 01:26:00;;;;;;;;;;;;;;;20.83;50.81;102463.25;7289883;19;152479;-56
2022/10/11 01:28:42;;;;;;;;;;;;;;;20.82;50.66;102455.94;7278010;19;153677;-56
2022/10/11 01:31:31;;;;;;;;;;;;;;;20.82;50.80;102455.09;7280780;19;151927;-57
2022/10/11 01:34:02;;;;;;;;;;;;;;;20.82;50.98;102449.47;7283003;19;154285;-57
2022/10/11 01:36:41;;;;;;;;;;;;;;;20.81;51.01;102459.88;7280780;19;153346;-57
2022/10/11 01:39:14;;;;;;;;;;;;;;;20.81;51.17;102456.22;7282393;19;152152;-56
2022/10/11 01:41:45;;;;;;;;;;;;;;;20.81;51.28;102450.59;7280603;19;153312;-57
2022/10/11 01:44:12;;;;;;;;;;;;;;;20.81;51.35;102465.47;7274941;19;152620;-56
2022/10/11 01:46:39;;;;;;;;;;;;;;;20.80;51.17;102449.75;7289691;19;151813;-56
2022/10/11 01:49:06;;;;;;;;;;;;;;;20.80;51.29;102463.78;7278558;19;153417;-58
2022/10/11 01:51:40;;;;;;;;;;;;;;;20.79;51.41;102453.69;7282854;19;152121;-57
2022/10/11 01:54:21;;;;;;;;;;;;;;;20.78;51.69;102448.34;7282348;19;153970;-57
2022/10/11 01:56:47;;;;;;;;;;;;;;;20.79;51.70;102447.22;7279637;19;153495;-57
2022/10/11 01:59:14;;;;;;;;;;;;;;;20.77;52.18;102453.09;7281534;19;152770;-58
2022/10/11 02:01:40;;;;;;;;;;;;;;;20.77;52.23;102444.69;7281289;19;152760;-57
2022/10/11 02:04:27;;;;;;;;;;;;;;;20.77;52.31;102443.84;7279856;19;153281;-57
2022/10/11 02:07:05;;;;;;;;;;;;;;;20.76;52.36;102457.03;7280378;19;152894;-57
2022/10/11 02:09:44;;;;;;;;;;;;;;;20.75;52.08;102449.75;7287933;19;153551;-57
2022/10/11 02:12:16;;;;;;;;;;;;;;;20.75;52.53;102434.84;7279826;19;151959;-57
2022/10/11 02:14:46;;;;;;;;;;;;;;;20.74;52.68;102436.81;7277345;19;153392;-57
2022/10/11 02:17:18;;;;;;;;;;;;;;;20.74;52.79;102444.38;7281526;19;156157;-56
2022/10/11 02:19:48;;;;;;;;;;;;;;;20.75;52.47;102441.31;7279667;19;152434;-56
2022/10/11 02:22:20;;;;;;;;;;;;;;;20.74;52.78;102434.00;7289087;19;153620;-56
2022/10/11 02:24:49;;;;;;;;;;;;;;;20.73;52.71;102429.50;7285919;19;153744;-56
2022/10/11 02:27:21;;;;;;;;;;;;;;;20.74;52.94;102439.63;7286308;19;153170;-56
2022/10/11 02:29:50;;;;;;;;;;;;;;;20.73;52.75;102434.25;7285720;19;154590;-57
2022/10/11 02:32:18;;;;;;;;;;;;;;;20.72;52.80;102430.59;7292216;19;154441;-56
2022/10/11 02:34:51;;;;;;;;;;;;;;;20.71;53.07;102430.91;7285100;19;152643;-56
2022/10/11 02:37:30;;;;;;;;;;;;;;;20.72;52.77;102435.38;7286836;19;153243;-56
2022/10/11 02:40:02;;;;;;;;;;;;;;;20.72;52.76;102433.41;7286207;19;151612;-57
2022/10/11 02:42:35;;;;;;;;;;;;;;;20.71;52.83;102433.72;7284790;19;152438;-57
2022/10/11 02:45:06;;;;;;;;;;;;;;;20.71;52.64;102425.28;7280357;19;152663;-57
2022/10/11 02:47:33;;;;;;;;;;;;;;;20.70;52.74;102441.28;7286392;19;152072;-57
2022/10/11 02:49:59;;;;;;;;;;;;;;;20.70;52.72;102446.91;7285696;19;154055;-57
2022/10/11 02:52:26;;;;;;;;;;;;;;;20.69;52.55;102445.22;7286401;19;153840;-57
2022/10/11 02:54:53;;;;;;;;;;;;;;;20.67;52.64;102427.78;7294796;19;152713;-56
2022/10/11 02:57:19;;;;;;;;;;;;;;;20.67;52.58;102432.56;7284355;19;153982;-60
2022/10/11 02:59:46;;;;;;;;;;;;;;;20.66;52.80;102440.16;7286362;19;152829;-56
2022/10/11 03:02:12;;;;;;;;;;;;;;;20.66;52.61;102439.31;7285379;19;152766;-56
2022/10/11 03:04:39;;;;;;;;;;;;;;;20.65;52.30;102430.03;7283737;19;153810;-57
2022/10/11 03:07:13;;;;;;;;;;;;;;;20.64;52.76;102430.28;7287087;19;152427;-57
2022/10/11 03:09:40;;;;;;;;;;;;;;;20.63;52.28;102435.06;7286451;19;153934;-59
2022/10/11 03:12:06;;;;;;;;;;;;;;;20.64;52.29;102449.94;7282075;19;154949;-56
2022/10/11 03:14:33;;;;;;;;;;;;;;;20.62;52.56;102436.19;7285961;19;151445;-56
2022/10/11 03:17:00;;;;;;;;;;;;;;;20.60;52.32;102432.81;7292985;19;152806;-56
2022/10/11 03:19:54;;;;;;;;;;;;;;;20.61;52.59;102437.31;7284588;19;153440;-56
2022/10/11 03:22:43;;;;;;;;;;;;;;;20.60;52.58;102443.19;7286318;19;152263;-56
2022/10/11 03:25:22;;;;;;;;;;;;;;;20.58;52.25;102443.44;7283875;19;152929;-56
2022/10/11 03:27:48;;;;;;;;;;;;;;;20.58;52.55;102435.03;7284637;19;152413;-56
2022/10/11 03:30:16;;;;;;;;;;;;;;;20.56;52.37;102428.84;7285804;19;152773;-56
2022/10/11 03:32:43;;;;;;;;;;;;;;;20.57;52.39;102433.34;7283770;19;154258;-56
2022/10/11 03:35:10;;;;;;;;;;;;;;;20.58;52.27;102439.81;7284961;19;152196;-56
2022/10/11 03:37:37;;;;;;;;;;;;;;;20.57;52.42;102432.50;7286327;19;154536;-56
2022/10/11 03:40:04;;;;;;;;;;;;;;;20.55;52.43;102432.78;7291113;19;152517;-56
2022/10/11 03:42:36;;;;;;;;;;;;;;;20.55;52.29;102426.31;7283174;19;153341;-56
2022/10/11 03:45:07;;;;;;;;;;;;;;;20.54;52.43;102435.84;7281263;19;153066;-59
2022/10/11 03:47:37;;;;;;;;;;;;;;;20.54;52.34;102433.03;7282147;19;152380;-56
2022/10/11 03:50:04;;;;;;;;;;;;;;;20.52;52.21;102433.31;7284991;19;154283;-56
2022/10/11 03:52:31;;;;;;;;;;;;;;;20.52;52.11;102433.31;7284585;19;153481;-56
2022/10/11 03:54:57;;;;;;;;;;;;;;;20.51;52.40;102430.78;7284227;19;152491;-56
2022/10/11 03:57:24;;;;;;;;;;;;;;;20.50;52.11;102432.75;7283801;19;153118;-56
2022/10/11 03:59:51;;;;;;;;;;;;;;;20.49;52.42;102436.66;7291811;19;154898;-56
2022/10/11 04:02:17;;;;;;;;;;;;;;;20.48;52.22;102437.81;7284305;19;153693;-57
2022/10/11 04:04:44;;;;;;;;;;;;;;;20.47;52.45;102443.69;7283123;19;153490;-56
2022/10/11 04:07:13;;;;;;;;;;;;;;;20.47;52.35;102429.63;7284830;19;152382;-56
2022/10/11 04:09:40;;;;;;;;;;;;;;;20.46;51.96;102430.75;7283306;19;153732;-57
2022/10/11 04:12:07;;;;;;;;;;;;;;;20.45;52.25;102441.13;7282219;19;153828;-56
2022/10/11 04:14:33;;;;;;;;;;;;;;;20.44;52.15;102439.47;7284813;19;151896;-57
2022/10/11 04:17:00;;;;;;;;;;;;;;;20.43;52.26;102440.56;7284878;19;152751;-57
2022/10/11 04:19:27;;;;;;;;;;;;;;;20.42;52.27;102453.75;7282349;19;154119;-57
2022/10/11 04:21:53;;;;;;;;;;;;;;;20.42;51.82;102452.91;7293217;19;152137;-57
2022/10/11 04:24:20;;;;;;;;;;;;;;;20.41;52.00;102451.22;7283278;19;153684;-56
2022/10/11 04:26:47;;;;;;;;;;;;;;;20.40;51.98;102453.16;7282288;19;152188;-56
2022/10/11 04:29:13;;;;;;;;;;;;;;;20.38;51.94;102455.44;7282208;19;154550;-56
2022/10/11 04:31:40;;;;;;;;;;;;;;;20.38;51.93;102454.56;7283128;19;152776;-56
2022/10/11 04:34:07;;;;;;;;;;;;;;;20.37;52.10;102453.72;7283606;19;152232;-56
2022/10/11 04:36:33;;;;;;;;;;;;;;;20.37;52.27;102452.88;7284162;19;153299;-56
2022/10/11 04:39:00;;;;;;;;;;;;;;;20.37;52.04;102461.31;7282458;19;154516;-56
2022/10/11 04:41:28;;;;;;;;;;;;;;;20.35;51.76;102460.75;7282608;19;152978;-56
2022/10/11 04:43:55;;;;;;;;;;;;;;;20.34;51.84;102456.22;7286813;19;153424;-56
2022/10/11 04:46:21;;;;;;;;;;;;;;;20.34;52.05;102450.63;7277378;19;153596;-56
2022/10/11 04:48:49;;;;;;;;;;;;;;;20.33;52.20;102463.81;7281135;19;153334;-56
2022/10/11 04:51:15;;;;;;;;;;;;;;;20.32;51.91;102453.69;7280786;19;154116;-56
2022/10/11 04:53:42;;;;;;;;;;;;;;;20.34;52.01;102465.50;7284693;19;152772;-58
2022/10/11 04:56:10;;;;;;;;;;;;;;;20.38;52.29;102455.44;7282107;19;153292;-56
2022/10/11 04:58:39;;;;;;;;;;;;;;;20.43;52.44;102468.66;7282921;19;154252;-56
2022/10/11 05:01:07;;;;;;;;;;;;;;;20.49;52.57;102466.72;7280085;19;151816;-56
2022/10/11 05:03:33;;;;;;;;;;;;;;;20.51;52.74;102472.91;7283783;19;153167;-56
2022/10/11 05:06:00;;;;;;;;;;;;;;;20.56;53.68;102464.50;7288917;19;153435;-56
2022/10/11 05:08:31;;;;;;;;;;;;;;;20.62;53.99;102460.63;7283780;19;153920;-56
2022/10/11 05:11:02;;;;;;;;;;;;;;;20.66;54.17;102462.63;7279999;19;153316;-56
2022/10/11 05:13:30;;;;;;;;;;;;;;;20.72;53.99;102469.06;7283879;19;151731;-56
2022/10/11 05:15:56;;;;;;;;;;;;;;;20.77;54.25;102474.72;7282282;19;153109;-56
2022/10/11 05:18:23;;;;;;;;;;;;;;;20.82;54.21;102478.41;7282249;19;154615;-56
2022/10/11 05:21:00;;;;;;;;;;;;;;;20.86;54.18;102476.75;7282404;19;151857;-56
2022/10/11 05:23:27;;;;;;;;;;;;;;;20.93;54.51;102475.66;7282764;19;153337;-58
2022/10/11 05:25:54;;;;;;;;;;;;;;;20.98;54.31;102472.88;7280197;19;153343;-57
2022/10/11 05:28:21;;;;;;;;;;;;;;;21.04;54.02;102474.56;7288843;19;152099;-57
2022/10/11 05:30:47;;;;;;;;;;;;;;;21.08;54.15;102478.50;7279650;19;154094;-56
2022/10/11 05:33:14;;;;;;;;;;;;;;;21.13;54.11;102472.94;7282700;19;151915;-57
2022/10/11 05:35:41;;;;;;;;;;;;;;;21.18;53.96;102475.78;7281668;19;153507;-57
2022/10/11 05:38:08;;;;;;;;;;;;;;;21.22;54.28;102474.97;7270921;19;153905;-57
2022/10/11 05:40:35;;;;;;;;;;;;;;;21.30;54.44;102487.66;7281556;19;152103;-57
2022/10/11 05:43:03;;;;;;;;;;;;;;;21.36;54.41;102488.50;7279010;19;153273;-56
2022/10/11 05:45:31;;;;;;;;;;;;;;;21.41;54.43;102486.53;7278556;19;154718;-56
2022/10/11 05:47:58;;;;;;;;;;;;;;;21.47;54.13;102490.22;7276450;19;152095;-56
2022/10/11 05:50:24;;;;;;;;;;;;;;;21.51;54.19;102492.19;7284805;19;152745;-57
2022/10/11 05:52:51;;;;;;;;;;;;;;;21.57;53.99;102488.28;7281921;19;152129;-57
2022/10/11 05:55:17;;;;;;;;;;;;;;;21.61;53.85;102494.19;7283547;19;153844;-57
2022/10/11 05:57:44;;;;;;;;;;;;;;;21.65;53.51;102493.38;7286871;19;156357;-57
2022/10/11 06:00:11;;;;;;;;;;;;;;;21.68;53.13;102501.22;7287356;19;151805;-56
2022/10/11 06:02:38;;;;;;;;;;;;;;;21.73;52.99;102495.63;7288029;19;152988;-56
2022/10/11 06:05:04;;;;;;;;;;;;;;;21.77;53.05;102498.72;7285001;19;156417;-57
2022/10/11 06:07:31;;;;;;;;;;;;;;;21.80;53.07;102498.19;7288707;19;152909;-56
2022/10/11 06:09:58;;;;;;;;;;;;;;;21.83;52.68;102488.31;7292742;19;153502;-58
2022/10/11 06:12:24;;;;;;;;;;;;;;;21.87;52.15;102495.06;7287109;19;152489;-57
2022/10/11 06:14:51;;;;;;;;;;;;;;;21.89;52.34;102512.53;7287469;19;153260;-57
2022/10/11 06:17:18;;;;;;;;;;;;;;;21.92;52.20;102509.16;7287246;19;154315;-56
2022/10/11 06:19:44;;;;;;;;;;;;;;;21.95;52.44;102506.66;7287435;19;152701;-58
2022/10/11 06:22:11;;;;;;;;;;;;;;;21.97;52.41;102518.47;7287854;19;152963;-57
2022/10/11 06:24:37;;;;;;;;;;;;;;;21.99;50.19;102518.19;7285588;19;154008;-57
2022/10/11 06:27:13;;;;;;;;;;;;;;;21.99;48.14;102521.84;7287678;19;152025;-57
2022/10/11 06:29:39;;;;;;;;;;;;;;;21.98;46.97;102525.81;7285030;19;153213;-57
2022/10/11 06:32:06;;;;;;;;;;;;;;;21.93;47.09;102522.13;7293723;19;152821;-57
2022/10/11 06:34:33;;;;;;;;;;;;;;;21.85;46.17;102520.66;7285690;19;153482;-57
2022/10/11 06:37:00;;;;;;;;;;;;;;;21.78;45.62;102516.44;7287224;19;153153;-57
2022/10/11 06:39:26;;;;;;;;;;;;;;;21.73;45.54;102528.53;7287548;19;153872;-57
2022/10/11 06:41:53;;;;;;;;;;;;;;;21.70;45.69;102534.72;7285683;19;153021;-57
2022/10/11 06:44:20;;;;;;;;;;;;;;;21.68;45.24;102537.81;7285095;19;153204;-57
2022/10/11 06:46:46;;;;;;;;;;;;;;;21.66;45.50;102536.41;7286878;19;152201;-57
2022/10/11 06:49:14;;;;;;;;;;;;;;;21.64;45.35;102538.63;7280798;19;154612;-57
2022/10/11 06:51:48;;;;;;;;;;;;;;;21.61;44.99;102534.44;7285648;19;154511;-57
2022/10/11 06:54:15;;;;;;;;;;;;;;;21.61;45.25;102533.56;7294405;19;153658;-57
2022/10/11 06:56:43;;;;;;;;;;;;;;;21.62;45.02;102540.91;7284474;19;153968;-57
2022/10/11 06:59:11;;;;;;;;;;;;;;;21.58;44.65;102537.78;7286165;19;152075;-57
2022/10/11 07:01:37;;;;;;;;;;;;;;;21.54;44.76;102538.59;7285608;19;152908;-57
2022/10/11 07:04:04;;;;;;;;;;;;;;;21.51;44.62;102539.16;7284477;19;153670;-58
2022/10/11 07:06:36;;;;;;;;;;;;;;;21.49;44.90;102542.25;7284094;19;152510;-57
2022/10/11 07:09:03;;;;;;;;;;;;;;;21.48;44.67;102543.38;7286571;19;153448;-57
2022/10/11 07:11:30;;;;;;;;;;;;;;;21.45;45.02;102543.91;7281390;19;154090;-57
2022/10/11 07:14:01;;;;;;;;;;;;;;;21.43;44.69;102540.56;7284961;19;152906;-58
2022/10/11 07:16:28;;;;;;;;;;;;;;;21.42;44.84;102543.63;7292348;19;154248;-56
2022/10/11 07:18:55;;;;;;;;;;;;;;;21.43;45.06;102549.00;7285106;19;152597;-56
2022/10/11 07:21:26;;;;;;;;;;;;;;;21.43;45.16;102556.59;7285626;19;153586;-57
2022/10/11 07:23:53;;;;;;;;;;;;;;;21.44;45.79;102556.28;7284351;19;153497;-57
2022/10/11 07:26:20;;;;;;;;;;;;;;;21.43;44.97;102560.25;7283462;19;152956;-56
2022/10/11 07:28:46;;;;;;;;;;;;;;;21.46;45.85;102561.63;7285164;19;153355;-57
2022/10/11 07:31:15;;;;;;;;;;;;;;;21.42;45.47;102560.50;7280212;19;153361;-57
2022/10/11 07:33:42;;;;;;;;;;;;;;;21.38;45.45;102557.41;7286569;19;153524;-57
2022/10/11 07:36:09;;;;;;;;;;;;;;;21.35;45.46;102549.50;7282433;19;152989;-57
2022/10/11 07:38:37;;;;;;;;;;;;;;;21.34;45.00;102561.88;7293619;19;153417;-57
2022/10/11 07:41:05;;;;;;;;;;;;;;;21.30;44.94;102558.75;7284365;19;153189;-57
2022/10/11 07:43:32;;;;;;;;;;;;;;;21.28;45.36;102565.78;7282675;19;153846;-57
2022/10/11 07:46:02;;;;;;;;;;;;;;;21.27;44.93;102564.09;7284687;19;152542;-56
2022/10/11 07:48:30;;;;;;;;;;;;;;;21.24;45.30;102562.69;7284705;19;152722;-56
2022/10/11 07:51:01;;;;;;;;;;;;;;;21.23;44.97;102560.16;7278035;19;153121;-56
2022/10/11 07:53:28;;;;;;;;;;;;;;;21.20;45.25;102566.31;7286137;19;152839;-56
2022/10/11 07:55:58;;;;;;;;;;;;;;;21.20;45.31;102564.34;7283975;19;153856;-57
2022/10/11 07:58:24;;;;;;;;;;;;;;;21.18;45.04;102566.59;7283855;19;154724;-56
2022/10/11 08:00:52;;;;;;;;;;;;;;;21.17;45.03;102561.22;7291076;19;152467;-57
2022/10/11 08:03:19;;;;;;;;;;;;;;;21.16;45.13;102556.75;7284724;19;154032;-57
2022/10/11 08:05:46;;;;;;;;;;;;;;;21.14;45.20;102564.59;7283453;19;153968;-56
2022/10/11 08:08:13;;;;;;;;;;;;;;;21.12;44.97;102566.81;7286336;19;154682;-56
2022/10/11 08:10:39;;;;;;;;;;;;;;;21.10;45.37;102558.66;7280793;19;154920;-57
2022/10/11 08:13:06;;;;;;;;;;;;;;;21.11;45.68;102567.94;7284207;19;153244;-57
2022/10/11 08:15:33;;;;;;;;;;;;;;;21.08;45.33;102565.63;7283631;19;153030;-57
2022/10/11 08:18:00;;;;;;;;;;;;;;;21.07;45.55;102569.59;7283278;19;154628;-56
2022/10/11 08:20:27;;;;;;;;;;;;;;;21.05;45.90;102572.66;7292350;19;153092;-59
2022/10/11 08:22:54;;;;;;;;;;;;;;;21.04;45.68;102572.94;7285441;19;154416;-56
2022/10/11 08:25:20;;;;;;;;;;;;;;;21.01;45.56;102573.50;7283647;19;152676;-56
2022/10/11 08:27:47;;;;;;;;;;;;;;;21.00;45.80;102571.78;7283749;19;153723;-56
2022/10/11 08:30:14;;;;;;;;;;;;;;;20.97;45.89;102577.97;7280231;19;154108;-56
2022/10/11 08:32:40;;;;;;;;;;;;;;;20.95;46.13;102572.59;7284822;19;152627;-58
2022/10/11 08:35:07;;;;;;;;;;;;;;;20.94;46.16;102576.53;7283780;19;153494;-59
2022/10/11 08:37:34;;;;;;;;;;;;;;;20.94;46.16;102573.72;7281526;19;154014;-58
2022/10/11 08:40:02;;;;;;;;;;;;;;;20.92;45.91;102581.59;7282739;19;152326;-58
2022/10/11 08:42:36;;;;;;;;;;;;;;;20.91;46.14;102573.41;7288199;19;153618;-58
2022/10/11 08:45:06;;;;;;;;;;;;;;;20.90;46.19;102580.16;7283815;19;152175;-58
2022/10/11 08:47:43;;;;;;;;;;;;;;;20.88;46.15;102580.44;7284803;19;152830;-58
2022/10/11 08:50:16;;;;;;;;;;;;;;;20.86;46.10;102577.03;7274397;19;153895;-58
2022/10/11 08:53:00;;;;;;;;;;;;;;;20.85;46.18;102575.34;7261285;19;154117;-60
2022/10/11 08:55:38;;;;;;;;;;;;;;;20.85;45.85;102572.53;7270731;19;153519;-58
2022/10/11 08:58:05;;;;;;;;;;;;;;;20.86;45.93;102583.50;7277670;19;154077;-58
2022/10/11 09:00:35;;;;;;;;;;;;;;;20.85;45.57;102579.00;7279036;19;151812;-58
2022/10/11 09:03:18;;;;;;;;;;;;;;;20.86;45.64;102582.66;7276990;19;153497;-58
2022/10/11 09:05:44;;;;;;;;;;;;;;;20.88;45.62;102573.97;7278211;19;153761;-59
2022/10/11 09:08:11;;;;;;;;;;;;;;;20.90;45.48;102574.53;7278530;19;152610;-58
2022/10/11 09:10:38;;;;;;;;;;;;;;;20.92;45.50;102581.59;7272948;19;153710;-58
2022/10/11 09:13:05;;;;;;;;;;;;;;;20.95;45.30;102583.00;7277143;19;153408;-58
2022/10/11 09:15:58;;;;;;;;;;;;;;;20.96;45.87;102568.69;7275496;19;153534;-59
2022/10/11 09:18:45;;;;;;;;;;;;;;;21.01;45.46;102579.09;7276256;19;155185;-58
2022/10/11 09:21:31;;;;;;;;;;;;;;;21.04;45.67;102579.41;7275213;19;152975;-58
2022/10/11 09:24:03;;;;;;;;;;;;;;;21.06;45.56;102568.75;7277235;19;152540;-58
2022/10/11 09:26:36;;;;;;;;;;;;;;;21.09;45.53;102571.00;7275149;19;153826;-58
2022/10/11 09:29:30;;;;;;;;;;;;;;;21.12;45.66;102575.25;7283799;19;152306;-58
2022/10/11 09:31:57;;;;;;;;;;;;;;;21.14;45.44;102567.41;7276865;19;154107;-58
2022/10/11 09:34:31;;;;;;;;;;;;;;;21.16;45.20;102563.22;7280170;19;152962;-58
2022/10/11 09:37:01;;;;;;;;;;;;;;;21.17;45.57;102561.22;7283239;19;153444;-58
2022/10/11 09:39:44;;;;;;;;;;;;;;;21.20;45.21;102555.06;7281082;19;153803;-58
2022/10/11 09:42:31;;;;;;;;;;;;;;;21.21;45.48;102551.97;7278784;19;152610;-58
2022/10/11 09:45:04;;;;;;;;;;;;;;;21.23;45.16;102558.19;7282393;19;153892;-57
2022/10/11 09:47:31;;;;;;;;;;;;;;;21.24;45.30;102557.06;7279595;19;153413;-58
2022/10/11 09:50:05;;;;;;;;;;;;;;;21.27;45.08;102555.66;7280478;19;153143;-58
2022/10/11 09:52:32;;;;;;;;;;;;;;;21.29;45.25;102561.88;7289236;19;153375;-58
2022/10/11 09:55:00;;;;;;;;;;;;;;;21.30;45.14;102569.19;7285828;19;153034;-58
2022/10/11 09:57:30;;;;;;;;;;;;;;;21.32;44.91;102572.56;7282874;19;153350;-59
2022/10/11 10:00:00;;;;;;;;;;;;;;;21.33;45.36;102562.16;7284411;19;154745;-58
2022/10/11 10:02:40;;;;;;;;;;;;;;;21.35;45.14;102568.38;7286061;19;153240;-58
2022/10/11 10:05:09;;;;;;;;;;;;;;;21.36;45.11;102567.22;7284568;19;153645;-58
2022/10/11 10:07:39;;;;;;;;;;;;;;;21.37;45.04;102566.09;7281018;19;152379;-58
2022/10/11 10:10:34;;;;;;;;;;;;;;;21.39;44.94;102567.53;7284769;19;153309;-58
2022/10/11 10:13:02;;;;;;;;;;;;;;;21.41;45.00;102567.25;7284811;19;153517;-58
2022/10/11 10:15:35;;;;;;;;;;;;;;;21.43;44.95;102567.84;7290888;19;153088;-58
2022/10/11 10:18:02;;;;;;;;;;;;;;;21.43;44.73;102570.63;7286003;19;153308;-58
2022/10/11 10:20:31;;;;;;;;;;;;;;;21.42;44.99;102569.78;7283599;19;153607;-58
2022/10/11 10:23:21;;;;;;;;;;;;;;;21.44;44.76;102564.72;7287259;19;152509;-59
2022/10/11 10:25:53;;;;;;;;;;;;;;;21.45;44.95;102563.59;7280617;19;152669;-59
2022/10/11 10:28:26;;;;;;;;;;;;;;;21.47;44.94;102560.53;7285046;19;153149;-58
2022/10/11 10:31:21;;;;;;;;;;;;;;;21.46;45.00;102559.69;7283738;19;152655;-58
2022/10/11 10:33:51;;;;;;;;;;;;;;;21.47;44.42;102558.56;7286712;19;153252;-59
2022/10/11 10:36:20;;;;;;;;;;;;;;;21.47;44.50;102558.56;7290266;19;154291;-59
2022/10/11 10:38:53;;;;;;;;;;;;;;;21.49;44.54;102567.56;7272891;19;155571;-58
2022/10/11 10:41:22;;;;;;;;;;;;;;;21.49;44.64;102559.13;7282787;19;154902;-58
2022/10/11 10:43:55;;;;;;;;;;;;;;;21.51;44.83;102564.47;7284176;19;152583;-58
2022/10/11 10:46:24;;;;;;;;;;;;;;;21.51;44.49;102559.69;7283723;19;154560;-59
2022/10/11 10:48:51;;;;;;;;;;;;;;;21.53;44.47;102551.81;7283765;19;153940;-58
2022/10/11 10:52:01;;;;;;;;;;;;;;;21.53;44.53;102557.44;7282023;19;152566;-58
2022/10/11 10:54:36;;;;;;;;;;;;;;;21.54;44.60;102549.84;7281904;19;153381;-58
2022/10/11 10:57:16;;;;;;;;;;;;;;;21.55;44.51;102551.56;7281183;19;154119;-58
2022/10/11 10:59:43;;;;;;;;;;;;;;;21.53;44.48;102540.56;7291455;19;152245;-58
2022/10/11 11:02:15;;;;;;;;;;;;;;;21.54;44.33;102547.88;7277524;19;153499;-59
2022/10/11 11:05:22;;;;;;;;;;;;;;;21.56;44.51;102537.22;7282704;19;152829;-59
2022/10/11 11:07:53;;;;;;;;;;;;;;;21.56;44.27;102542.00;7281408;19;153214;-58
2022/10/11 11:10:20;;;;;;;;;;;;;;;21.56;44.61;102530.75;7278788;19;154849;-58
2022/10/11 11:12:46;;;;;;;;;;;;;;;21.53;44.50;102537.75;7275843;19;153543;-58
2022/10/11 11:15:27;;;;;;;;;;;;;;;21.54;44.73;102538.59;7279838;19;154524;-58
2022/10/11 11:18:24;;;;;;;;;;;;;;;21.51;44.99;102536.34;7278785;19;154276;-58
2022/10/11 11:20:51;;;;;;;;;;;;;;;21.52;44.99;102530.47;7277645;19;153233;-58
2022/10/11 11:23:26;;;;;;;;;;;;;;;21.52;44.55;102533.28;7287436;19;155019;-58
2022/10/11 11:26:00;;;;;;;;;;;;;;;21.52;44.73;102524.00;7278080;19;153046;-58
2022/10/11 11:28:35;;;;;;;;;;;;;;;21.53;45.18;102520.88;7281133;19;153937;-58
2022/10/11 11:31:29;;;;;;;;;;;;;;;21.51;45.21;102514.69;7277159;19;153277;-58
2022/10/11 11:34:08;;;;;;;;;;;;;;;21.51;45.21;102502.59;7280325;19;153660;-58
2022/10/11 11:36:46;;;;;;;;;;;;;;;21.52;45.05;102504.31;7278948;19;154179;-59
2022/10/11 11:39:19;;;;;;;;;;;;;;;21.51;44.73;102509.09;7278995;19;153493;-58
2022/10/11 11:42:07;;;;;;;;;;;;;;;21.50;45.15;102509.34;7277767;19;152506;-58
2022/10/11 11:45:01;;;;;;;;;;;;;;;21.50;44.70;102510.19;7278619;19;153333;-58
2022/10/11 11:47:41;;;;;;;;;;;;;;;21.50;45.06;102509.34;7283239;19;153027;-59
2022/10/11 11:50:08;;;;;;;;;;;;;;;21.49;45.02;102514.13;7277566;19;154077;-59
2022/10/11 11:52:38;;;;;;;;;;;;;;;21.48;44.95;102504.03;7273137;19;156270;-59
2022/10/11 11:55:10;;;;;;;;;;;;;;;21.48;45.30;102491.91;7273050;19;153143;-58
2022/10/11 11:57:51;;;;;;;;;;;;;;;21.48;45.30;102492.78;7276798;19;153843;-58
2022/10/11 12:00:29;;;;;;;;;;;;;;;21.49;45.25;102487.97;7275959;19;153717;-58
2022/10/11 12:02:58;;;;;;;;;;;;;;;21.48;45.01;102478.72;7278784;19;154530;-58
2022/10/11 12:05:30;;;;;;;;;;;;;;;21.49;45.37;102490.78;7280308;19;153445;-58
2022/10/11 12:08:24;;;;;;;;;;;;;;;21.49;45.15;102487.97;7279230;19;155916;-58
2022/10/11 12:10:59;;;;;;;;;;;;;;;21.48;45.28;102483.47;7285613;19;152131;-58
2022/10/11 12:13:36;;;;;;;;;;;;;;;21.48;45.13;102481.53;7280996;19;154505;-58
2022/10/11 12:16:03;;;;;;;;;;;;;;;21.47;45.43;102474.19;7282477;19;152442;-58
2022/10/11 12:18:30;;;;;;;;;;;;;;;21.47;45.38;102477.00;7283811;19;153265;-60
2022/10/11 12:21:02;;;;;;;;;;;;;;;21.48;45.55;102473.09;7279002;19;153706;-58
2022/10/11 12:23:29;;;;;;;;;;;;;;;21.49;45.58;102471.09;7282998;19;152483;-58
2022/10/11 12:26:14;;;;;;;;;;;;;;;21.49;45.23;102463.50;7280878;19;153834;-58
2022/10/11 12:28:41;;;;;;;;;;;;;;;21.49;45.07;102466.31;7282427;19;153432;-58
2022/10/11 12:31:19;;;;;;;;;;;;;;;21.49;45.33;102469.13;7287491;19;152057;-58
2022/10/11 12:33:46;;;;;;;;;;;;;;;21.49;45.75;102466.31;7281862;19;154645;-58
2022/10/11 12:36:32;;;;;;;;;;;;;;;21.50;45.46;102462.38;7280866;19;152856;-58
2022/10/11 12:39:18;;;;;;;;;;;;;;;21.50;45.30;102468.00;7280585;19;153311;-58
2022/10/11 12:44:17;;;;;;;;;;;;;;;21.49;45.10;102455.06;7282420;19;153762;-59
2022/10/11 12:46:52;;;;;;;;;;;;;;;21.50;45.48;102451.13;7282046;19;153474;-58
2022/10/11 12:49:18;;;;;;;;;;;;;;;21.49;45.21;102460.69;7280348;19;154337;-57